createdAt,value
2023-11-20T00:00:55.473Z,24.2
2023-11-20T00:01:59.927Z,24.2
2023-11-20T00:03:01.946Z,24.2
2023-11-20T00:04:04.386Z,24.3
2023-11-20T00:05:07.063Z,24.3
2023-11-20T00:06:08.798Z,24.3
2023-11-20T00:07:10.580Z,24.3
2023-11-20T00:08:12.317Z,24.3
2023-11-20T00:09:14.139Z,24.2
2023-11-20T00:10:15.897Z,24.2
2023-11-20T00:11:17.908Z,24.3
2023-11-20T00:12:19.810Z,24.3
2023-11-20T00:13:21.645Z,24.2
2023-11-20T00:14:23.460Z,24.2
2023-11-20T00:15:25.369Z,24.3
2023-11-20T00:16:27.433Z,24.3
2023-11-20T00:17:29.374Z,24.3
2023-11-20T00:18:31.545Z,24.3
2023-11-20T00:19:33.626Z,24.3
2023-11-20T00:20:35.362Z,24.3
2023-11-20T00:21:37.102Z,24.3
2023-11-20T00:22:38.972Z,24.3
2023-11-20T00:23:40.743Z,24.3
2023-11-20T00:24:42.520Z,24.3
2023-11-20T00:25:44.500Z,24.3
2023-11-20T00:26:46.203Z,24.3
2023-11-20T00:27:48.076Z,24.3
2023-11-20T00:28:50.056Z,24.3
2023-11-20T00:29:51.915Z,24.3
2023-11-20T00:30:53.743Z,24.3
2023-11-20T00:31:55.809Z,24.3
2023-11-20T00:32:57.890Z,24.3
2023-11-20T00:33:59.905Z,24.3
2023-11-20T00:35:02.153Z,24.3
2023-11-20T00:36:03.907Z,24.3
2023-11-20T00:37:05.817Z,24.3
2023-11-20T00:38:08.246Z,24.2
2023-11-20T00:39:10.030Z,24.3
2023-11-20T00:40:11.831Z,24.3
2023-11-20T00:41:13.844Z,24.3
2023-11-20T00:42:15.602Z,24.3
2023-11-20T00:43:17.473Z,24.3
2023-11-20T00:44:19.279Z,24.3
2023-11-20T00:45:21.112Z,24.3
2023-11-20T00:46:22.963Z,24.3
2023-11-20T00:47:25.649Z,24.3
2023-11-20T00:48:27.863Z,24.3
2023-11-20T00:49:29.920Z,24.3
2023-11-20T00:50:31.715Z,24.3
2023-11-20T00:51:33.521Z,24.3
2023-11-20T00:52:35.654Z,24.3
2023-11-20T00:53:37.427Z,24.3
2023-11-20T00:54:39.256Z,24.3
2023-11-20T00:55:41.425Z,24.3
2023-11-20T00:56:43.430Z,24.3
2023-11-20T00:57:45.200Z,24.3
2023-11-20T00:58:47.285Z,24.3
2023-11-20T00:59:49.049Z,24.3
2023-11-20T01:00:50.925Z,24.3
2023-11-20T01:01:53.096Z,24.3
2023-11-20T01:02:55.236Z,24.4
2023-11-20T01:03:57.667Z,24.4
2023-11-20T01:05:00.103Z,24.4
2023-11-20T01:06:01.926Z,24.3
2023-11-20T01:07:03.719Z,24.3
2023-11-20T01:08:05.753Z,24.4
2023-11-20T01:09:09.948Z,24.4
2023-11-20T01:10:11.821Z,24.4
2023-11-20T01:11:13.913Z,24.4
2023-11-20T01:12:15.665Z,24.4
2023-11-20T01:13:17.490Z,24.4
2023-11-20T01:14:19.357Z,24.4
2023-11-20T01:15:21.399Z,24.4
2023-11-20T01:16:23.200Z,24.4
2023-11-20T01:17:25.186Z,24.3
2023-11-20T01:18:27.533Z,24.3
2023-11-20T01:19:29.681Z,24.3
2023-11-20T01:20:31.501Z,24.3
2023-11-20T01:21:33.310Z,24.3
2023-11-20T01:22:35.224Z,24.3
2023-11-20T01:23:37.020Z,24.3
2023-11-20T01:24:38.769Z,24.4
2023-11-20T01:25:40.779Z,24.4
2023-11-20T01:26:42.574Z,24.4
2023-11-20T01:27:44.400Z,24.4
2023-11-20T01:28:46.426Z,24.4
2023-11-20T01:29:48.297Z,24.4
2023-11-20T01:30:50.125Z,24.4
2023-11-20T01:31:52.248Z,24.3
2023-11-20T01:32:54.101Z,24.4
2023-11-20T01:33:56.338Z,24.4
2023-11-20T01:34:58.218Z,24.4
2023-11-20T01:36:00.008Z,24.4
2023-11-20T01:37:01.866Z,24.3
2023-11-20T01:38:04.126Z,24.3
2023-11-20T01:39:05.910Z,24.3
2023-11-20T01:40:07.714Z,24.4
2023-11-20T01:41:09.681Z,24.4
2023-11-20T01:42:11.550Z,24.4
2023-11-20T01:43:13.385Z,24.4
2023-11-20T01:44:15.250Z,24.4
2023-11-20T01:45:17.093Z,24.4
2023-11-20T01:46:19.075Z,24.4
2023-11-20T01:47:21.700Z,24.3
2023-11-20T01:48:23.423Z,24.4
2023-11-20T01:49:25.171Z,24.4
2023-11-20T01:50:26.928Z,24.4
2023-11-20T01:51:28.809Z,24.4
2023-11-20T01:52:31.051Z,24.4
2023-11-20T01:53:32.767Z,24.4
2023-11-20T01:54:34.569Z,24.4
2023-11-20T01:55:36.484Z,24.4
2023-11-20T01:56:38.260Z,24.4
2023-11-20T01:57:40.035Z,24.4
2023-11-20T01:58:42.052Z,24.4
2023-11-20T01:59:43.825Z,24.4
2023-11-20T02:00:45.682Z,24.4
2023-11-20T02:01:47.789Z,24.4
2023-11-20T02:02:49.724Z,24.4
2023-11-20T02:03:52.144Z,24.4
2023-11-20T02:04:54.559Z,24.4
2023-11-20T02:05:56.342Z,24.4
2023-11-20T02:06:58.188Z,24.4
2023-11-20T02:08:00.254Z,24.4
2023-11-20T02:09:01.975Z,24.4
2023-11-20T02:10:03.813Z,24.4
2023-11-20T02:11:07.711Z,24.4
2023-11-20T02:12:10.425Z,24.3
2023-11-20T02:13:12.246Z,24.3
2023-11-20T02:14:14.381Z,24.4
2023-11-20T02:15:16.110Z,24.4
2023-11-20T02:16:17.930Z,24.4
2023-11-20T02:17:19.875Z,24.4
2023-11-20T02:18:22.023Z,24.4
2023-11-20T02:19:23.768Z,24.4
2023-11-20T02:20:25.585Z,24.4
2023-11-20T02:21:27.393Z,24.4
2023-11-20T02:22:29.171Z,24.4
2023-11-20T02:23:30.945Z,24.4
2023-11-20T02:24:32.742Z,24.4
2023-11-20T02:25:34.692Z,24.4
2023-11-20T02:26:36.469Z,24.4
2023-11-20T02:27:38.248Z,24.4
2023-11-20T02:28:40.216Z,24.4
2023-11-20T02:29:41.981Z,24.4
2023-11-20T02:30:46.586Z,24.4
2023-11-20T02:31:48.791Z,24.3
2023-11-20T02:32:50.853Z,24.3
2023-11-20T02:33:52.795Z,24.3
2023-11-20T02:34:54.860Z,24.3
2023-11-20T02:35:56.650Z,24.3
2023-11-20T02:36:58.385Z,24.3
2023-11-20T02:38:00.662Z,24.3
2023-11-20T02:39:02.481Z,24.4
2023-11-20T02:40:04.269Z,24.4
2023-11-20T02:41:06.262Z,24.4
2023-11-20T02:42:07.974Z,24.4
2023-11-20T02:43:09.745Z,24.4
2023-11-20T02:44:11.695Z,24.3
2023-11-20T02:45:13.485Z,24.3
2023-11-20T02:46:15.612Z,24.3
2023-11-20T02:47:17.475Z,24.4
2023-11-20T02:48:19.857Z,24.4
2023-11-20T02:49:21.676Z,24.4
2023-11-20T02:50:23.484Z,24.4
2023-11-20T02:51:25.245Z,24.4
2023-11-20T02:52:27.017Z,24.3
2023-11-20T02:53:28.809Z,24.3
2023-11-20T02:54:30.588Z,24.3
2023-11-20T02:55:32.889Z,24.3
2023-11-20T02:56:34.642Z,24.3
2023-11-20T02:57:36.456Z,24.3
2023-11-20T02:58:38.629Z,24.3
2023-11-20T02:59:40.372Z,24.3
2023-11-20T03:00:42.259Z,24.3
2023-11-20T03:01:44.447Z,24.3
2023-11-20T03:02:46.606Z,24.3
2023-11-20T03:03:49.087Z,24.3
2023-11-20T03:04:51.891Z,24.3
2023-11-20T03:05:53.742Z,24.3
2023-11-20T03:06:55.586Z,24.3
2023-11-20T03:07:57.634Z,24.3
2023-11-20T03:08:59.390Z,24.3
2023-11-20T03:10:01.168Z,24.3
2023-11-20T03:11:03.504Z,24.3
2023-11-20T03:12:05.298Z,24.3
2023-11-20T03:13:07.162Z,24.3
2023-11-20T03:14:09.256Z,24.3
2023-11-20T03:15:10.989Z,24.3
2023-11-20T03:16:13.175Z,24.3
2023-11-20T03:17:15.845Z,24.3
2023-11-20T03:18:18.535Z,24.3
2023-11-20T03:19:20.688Z,24.3
2023-11-20T03:20:22.528Z,24.3
2023-11-20T03:21:24.280Z,24.3
2023-11-20T03:22:26.058Z,24.3
2023-11-20T03:23:27.775Z,24.2
2023-11-20T03:24:29.544Z,24.2
2023-11-20T03:25:31.309Z,24.2
2023-11-20T03:26:33.077Z,24.2
2023-11-20T03:27:34.828Z,24.2
2023-11-20T03:28:36.849Z,24.2
2023-11-20T03:29:38.658Z,24.2
2023-11-20T03:30:40.510Z,24.2
2023-11-20T03:31:42.495Z,24.2
2023-11-20T03:32:44.642Z,24.2
2023-11-20T03:33:46.507Z,24.1
2023-11-20T03:34:48.620Z,24.1
2023-11-20T03:35:50.449Z,24.1
2023-11-20T03:36:52.262Z,24.1
2023-11-20T03:37:54.386Z,24.2
2023-11-20T03:38:56.169Z,24.2
2023-11-20T03:39:57.911Z,24.2
2023-11-20T03:40:59.867Z,24.2
2023-11-20T03:42:01.616Z,24.2
2023-11-20T03:43:03.495Z,24.2
2023-11-20T03:44:05.311Z,24.2
2023-11-20T03:45:07.094Z,24.2
2023-11-20T03:46:08.972Z,24.2
2023-11-20T03:47:11.230Z,24.2
2023-11-20T03:48:13.069Z,24.2
2023-11-20T03:49:14.883Z,24.2
2023-11-20T03:50:16.705Z,24.2
2023-11-20T03:51:18.502Z,24.1
2023-11-20T03:52:20.298Z,24.1
2023-11-20T03:53:22.048Z,24.1
2023-11-20T03:54:23.759Z,24.2
2023-11-20T03:55:25.592Z,24.1
2023-11-20T03:56:27.392Z,24.1
2023-11-20T03:57:29.446Z,24.1
2023-11-20T03:58:31.213Z,24.2
2023-11-20T03:59:35.260Z,24.2
2023-11-20T04:00:37.079Z,24.2
2023-11-20T04:01:39.053Z,24.2
2023-11-20T04:02:41.102Z,24.2
2023-11-20T04:03:43.341Z,24.2
2023-11-20T04:04:45.728Z,24.2
2023-11-20T04:05:48.207Z,24.2
2023-11-20T04:06:49.977Z,24.2
2023-11-20T04:07:51.975Z,24.2
2023-11-20T04:08:53.717Z,24.2
2023-11-20T04:09:55.507Z,24.2
2023-11-20T04:10:57.683Z,24.2
2023-11-20T04:11:59.473Z,24.2
2023-11-20T04:13:01.398Z,24.2
2023-11-20T04:14:03.304Z,24.2
2023-11-20T04:15:05.442Z,24.2
2023-11-20T04:16:07.294Z,24.1
2023-11-20T04:17:10.891Z,24.1
2023-11-20T04:18:14.490Z,24
2023-11-20T04:19:18.069Z,24
2023-11-20T04:20:21.520Z,24
2023-11-20T04:21:25.110Z,23.9
2023-11-20T04:22:28.593Z,23.9
2023-11-20T04:23:30.345Z,23.9
2023-11-20T04:24:32.151Z,23.8
2023-11-20T04:25:33.920Z,23.8
2023-11-20T04:26:35.696Z,23.7
2023-11-20T04:27:37.461Z,23.7
2023-11-20T04:28:39.395Z,23.7
2023-11-20T04:29:41.160Z,23.6
2023-11-20T04:30:43.173Z,23.6
2023-11-20T04:31:45.682Z,23.7
2023-11-20T04:32:48.248Z,23.7
2023-11-20T04:33:50.356Z,23.6
2023-11-20T04:34:52.238Z,23.6
2023-11-20T04:35:53.998Z,23.6
2023-11-20T04:36:55.862Z,23.6
2023-11-20T04:37:57.686Z,23.6
2023-11-20T04:38:59.445Z,23.6
2023-11-20T04:40:01.246Z,23.7
2023-11-20T04:41:03.514Z,23.6
2023-11-20T04:42:05.319Z,23.6
2023-11-20T04:43:07.087Z,23.6
2023-11-20T04:44:09.100Z,23.5
2023-11-20T04:45:11.004Z,23.6
2023-11-20T04:46:13.421Z,23.6
2023-11-20T04:47:16.263Z,23.6
2023-11-20T04:48:18.053Z,23.6
2023-11-20T04:49:19.805Z,23.6
2023-11-20T04:50:21.603Z,23.6
2023-11-20T04:51:23.555Z,23.6
2023-11-20T04:52:28.062Z,23.6
2023-11-20T04:53:29.833Z,23.5
2023-11-20T04:54:31.564Z,23.4
2023-11-20T04:55:33.305Z,23.4
2023-11-20T04:56:35.127Z,23.4
2023-11-20T04:57:36.937Z,23.5
2023-11-20T04:58:39.367Z,23.5
2023-11-20T04:59:41.606Z,23.5
2023-11-20T05:00:43.540Z,23.6
2023-11-20T05:01:46.105Z,23.6
2023-11-20T05:02:48.650Z,23.6
2023-11-20T05:03:50.821Z,23.6
2023-11-20T05:04:53.214Z,23.6
2023-11-20T05:05:54.952Z,23.7
2023-11-20T05:06:56.795Z,23.7
2023-11-20T05:07:58.988Z,23.7
2023-11-20T05:09:00.813Z,23.7
2023-11-20T05:10:02.672Z,23.7
2023-11-20T05:11:04.947Z,23.7
2023-11-20T05:12:06.723Z,23.8
2023-11-20T05:13:08.523Z,23.8
2023-11-20T05:14:10.349Z,23.7
2023-11-20T05:15:12.102Z,23.7
2023-11-20T05:16:13.939Z,23.8
2023-11-20T05:17:15.928Z,23.9
2023-11-20T05:18:17.708Z,23.9
2023-11-20T05:19:19.547Z,23.9
2023-11-20T05:20:21.326Z,24
2023-11-20T05:21:23.173Z,23.9
2023-11-20T05:22:24.937Z,23.9
2023-11-20T05:23:26.790Z,23.9
2023-11-20T05:24:28.577Z,23.9
2023-11-20T05:25:30.347Z,23.9
2023-11-20T05:26:32.086Z,23.9
2023-11-20T05:27:33.849Z,23.9
2023-11-20T05:28:35.672Z,24
2023-11-20T05:29:37.397Z,24.1
2023-11-20T05:30:39.145Z,24.1
2023-11-20T05:31:42.039Z,24.1
2023-11-20T05:32:44.425Z,24.1
2023-11-20T05:33:46.442Z,24.1
2023-11-20T05:34:48.411Z,24.2
2023-11-20T05:35:50.178Z,24.2
2023-11-20T05:36:51.935Z,24.2
2023-11-20T05:37:53.916Z,24.2
2023-11-20T05:38:55.912Z,24.2
2023-11-20T05:39:57.796Z,24.2
2023-11-20T05:40:59.864Z,24.2
2023-11-20T05:42:01.649Z,24.2
2023-11-20T05:43:03.451Z,24.3
2023-11-20T05:44:05.637Z,24.3
2023-11-20T05:45:07.485Z,24.3
2023-11-20T05:46:09.368Z,24.3
2023-11-20T05:47:11.748Z,24.3
2023-11-20T05:48:13.621Z,24.4
2023-11-20T05:49:15.703Z,24.4
2023-11-20T05:50:17.559Z,24.3
2023-11-20T05:51:19.398Z,24.2
2023-11-20T05:52:21.179Z,24.3
2023-11-20T05:53:23.099Z,24.3
2023-11-20T05:54:24.912Z,24.4
2023-11-20T05:55:26.684Z,24.4
2023-11-20T05:56:28.427Z,24.4
2023-11-20T05:57:30.149Z,24.4
2023-11-20T05:58:31.876Z,24.4
2023-11-20T05:59:33.630Z,24.4
2023-11-20T06:00:35.509Z,24.4
2023-11-20T06:01:37.310Z,24.5
2023-11-20T06:02:39.836Z,24.5
2023-11-20T06:03:41.964Z,24.5
2023-11-20T06:04:44.264Z,24.5
2023-11-20T06:05:46.319Z,24.5
2023-11-20T06:06:48.144Z,24.5
2023-11-20T06:07:50.029Z,24.6
2023-11-20T06:08:52.156Z,24.6
2023-11-20T06:09:54.018Z,24.6
2023-11-20T06:10:56.072Z,24.7
2023-11-20T06:11:57.806Z,24.7
2023-11-20T06:12:59.579Z,24.8
2023-11-20T06:14:01.702Z,24.8
2023-11-20T06:15:03.716Z,24.9
2023-11-20T06:16:05.608Z,24.9
2023-11-20T06:17:07.618Z,25
2023-11-20T06:18:09.742Z,25
2023-11-20T06:19:11.582Z,25
2023-11-20T06:20:13.617Z,25.1
2023-11-20T06:21:15.381Z,25.1
2023-11-20T06:22:17.184Z,25.1
2023-11-20T06:23:19.857Z,25.1
2023-11-20T06:24:21.673Z,25.1
2023-11-20T06:25:23.416Z,25.2
2023-11-20T06:26:25.192Z,25.2
2023-11-20T06:27:26.940Z,25.2
2023-11-20T06:28:28.746Z,25.2
2023-11-20T06:29:30.506Z,25.2
2023-11-20T06:30:32.343Z,25.2
2023-11-20T06:31:34.175Z,25.3
2023-11-20T06:32:36.641Z,25.3
2023-11-20T06:33:38.540Z,25.3
2023-11-20T06:34:40.534Z,25.2
2023-11-20T06:35:42.281Z,25.2
2023-11-20T06:36:44.079Z,25.3
2023-11-20T06:37:45.930Z,25.3
2023-11-20T06:38:47.661Z,25.3
2023-11-20T06:39:49.576Z,25.3
2023-11-20T06:40:51.653Z,25.4
2023-11-20T06:41:53.517Z,25.4
2023-11-20T06:42:55.365Z,25.4
2023-11-20T06:43:57.338Z,25.4
2023-11-20T06:44:59.414Z,25.4
2023-11-20T06:46:01.675Z,25.4
2023-11-20T06:47:04.002Z,25.4
2023-11-20T06:48:05.943Z,25.4
2023-11-20T06:49:08.061Z,25.5
2023-11-20T06:50:10.222Z,25.5
2023-11-20T06:51:12.061Z,25.6
2023-11-20T06:52:13.935Z,25.6
2023-11-20T06:53:15.869Z,25.7
2023-11-20T06:54:17.649Z,25.7
2023-11-20T06:55:19.546Z,25.7
2023-11-20T06:56:21.764Z,25.7
2023-11-20T06:57:23.565Z,25.8
2023-11-20T06:58:25.321Z,25.8
2023-11-20T06:59:27.138Z,25.8
2023-11-20T07:00:28.921Z,25.8
2023-11-20T07:01:30.769Z,25.8
2023-11-20T07:02:32.633Z,25.9
2023-11-20T07:03:34.947Z,25.9
2023-11-20T07:04:37.237Z,25.9
2023-11-20T07:05:39.633Z,26
2023-11-20T07:06:41.495Z,26
2023-11-20T07:07:43.533Z,26
2023-11-20T07:08:45.380Z,26
2023-11-20T07:09:47.196Z,26
2023-11-20T07:10:49.157Z,26
2023-11-20T07:11:51.171Z,26
2023-11-20T07:12:53.010Z,26
2023-11-20T07:13:55.373Z,26
2023-11-20T07:14:57.133Z,26
2023-11-20T07:15:58.939Z,26
2023-11-20T07:17:01.171Z,26
2023-11-20T07:18:03.669Z,26.1
2023-11-20T07:19:05.876Z,26.1
2023-11-20T07:20:07.735Z,26.1
2023-11-20T07:21:09.507Z,26.2
2023-11-20T07:22:11.479Z,26.2
2023-11-20T07:23:13.577Z,26.2
2023-11-20T07:24:15.338Z,26.3
2023-11-20T07:25:17.247Z,26.3
2023-11-20T07:26:19.648Z,26.3
2023-11-20T07:27:21.475Z,26.3
2023-11-20T07:28:23.274Z,26.4
2023-11-20T07:29:25.433Z,26.4
2023-11-20T07:30:27.275Z,26.4
2023-11-20T07:31:29.143Z,26.4
2023-11-20T07:32:31.738Z,26.3
2023-11-20T07:33:33.647Z,26.4
2023-11-20T07:34:35.451Z,26.4
2023-11-20T07:35:37.195Z,26.4
2023-11-20T07:36:38.959Z,26.5
2023-11-20T07:37:41.075Z,26.5
2023-11-20T07:38:42.826Z,26.4
2023-11-20T07:39:44.615Z,26.4
2023-11-20T07:40:46.502Z,26.4
2023-11-20T07:41:48.540Z,26.4
2023-11-20T07:42:50.727Z,26.5
2023-11-20T07:43:52.863Z,26.4
2023-11-20T07:44:54.803Z,26.4
2023-11-20T07:45:56.643Z,26.5
2023-11-20T07:46:59.142Z,26.5
2023-11-20T07:48:02.103Z,26.5
2023-11-20T07:49:04.099Z,26.5
2023-11-20T07:50:06.123Z,26.5
2023-11-20T07:51:08.017Z,26.5
2023-11-20T07:52:10.016Z,26.5
2023-11-20T07:53:12.207Z,26.5
2023-11-20T07:54:13.947Z,26.5
2023-11-20T07:55:15.740Z,26.6
2023-11-20T07:56:17.695Z,26.6
2023-11-20T07:57:19.527Z,26.6
2023-11-20T07:58:21.335Z,26.6
2023-11-20T07:59:23.701Z,26.5
2023-11-20T08:00:25.480Z,26.5
2023-11-20T08:01:27.266Z,26.6
2023-11-20T08:02:29.052Z,26.6
2023-11-20T08:03:31.081Z,26.5
2023-11-20T08:04:32.974Z,26.6
2023-11-20T08:05:41.246Z,26.6
2023-11-20T08:06:52.840Z,26.6
2023-11-20T08:07:55.135Z,26.7
2023-11-20T08:08:56.972Z,26.7
2023-11-20T08:09:58.780Z,26.8
2023-11-20T08:11:00.714Z,26.8
2023-11-20T08:12:02.475Z,26.8
2023-11-20T08:13:04.417Z,26.8
2023-11-20T08:14:06.700Z,26.8
2023-11-20T08:15:08.754Z,26.8
2023-11-20T08:16:10.605Z,26.8
2023-11-20T08:17:14.840Z,26.8
2023-11-20T08:18:21.145Z,26.8
2023-11-20T08:19:22.953Z,26.8
2023-11-20T08:20:27.556Z,26.7
2023-11-20T08:21:29.316Z,26.7
2023-11-20T08:22:33.027Z,26.7
2023-11-20T08:23:37.932Z,26.7
2023-11-20T08:24:39.838Z,26.8
2023-11-20T08:25:42.256Z,26.8
2023-11-20T08:26:44.110Z,26.8
2023-11-20T08:27:45.845Z,26.9
2023-11-20T08:28:47.920Z,26.9
2023-11-20T08:29:49.778Z,26.9
2023-11-20T08:30:51.587Z,26.9
2023-11-20T08:31:53.499Z,26.9
2023-11-20T08:32:55.520Z,26.9
2023-11-20T08:33:57.446Z,26.9
2023-11-20T08:34:59.833Z,26.9
2023-11-20T08:36:01.716Z,26.9
2023-11-20T08:37:03.541Z,26.9
2023-11-20T08:38:06.644Z,26.9
2023-11-20T08:39:08.709Z,26.9
2023-11-20T08:40:10.888Z,26.9
2023-11-20T08:41:13.290Z,26.9
2023-11-20T08:42:15.100Z,26.9
2023-11-20T08:43:16.999Z,26.9
2023-11-20T08:44:19.284Z,26.9
2023-11-20T08:45:21.222Z,26.9
2023-11-20T08:46:23.127Z,26.9
2023-11-20T08:47:26.066Z,26.9
2023-11-20T08:48:28.226Z,27
2023-11-20T08:49:30.323Z,27
2023-11-20T08:50:32.109Z,27
2023-11-20T08:51:33.957Z,27
2023-11-20T08:52:35.904Z,27
2023-11-20T08:53:37.768Z,27
2023-11-20T08:54:39.542Z,27
2023-11-20T08:55:41.425Z,27
2023-11-20T08:56:43.248Z,27
2023-11-20T08:57:45.099Z,27
2023-11-20T08:58:47.126Z,27
2023-11-20T08:59:48.998Z,27
2023-11-20T09:00:51.007Z,27
2023-11-20T09:01:53.088Z,27
2023-11-20T09:02:55.416Z,27
2023-11-20T09:03:57.418Z,27
2023-11-20T09:04:59.859Z,27
2023-11-20T09:06:01.704Z,27
2023-11-20T09:07:03.663Z,27
2023-11-20T09:08:05.718Z,27.1
2023-11-20T09:09:07.480Z,27.1
2023-11-20T09:10:09.346Z,27.1
2023-11-20T09:11:11.530Z,27.1
2023-11-20T09:12:13.294Z,27.1
2023-11-20T09:13:15.218Z,27.1
2023-11-20T09:14:17.433Z,27.1
2023-11-20T09:15:19.330Z,27.1
2023-11-20T09:16:21.317Z,27.1
2023-11-20T09:17:24.114Z,27.1
2023-11-20T09:18:25.881Z,27.1
2023-11-20T09:19:27.820Z,27.1
2023-11-20T09:20:29.627Z,27.1
2023-11-20T09:21:31.417Z,27.2
2023-11-20T09:22:33.197Z,27.1
2023-11-20T09:23:34.950Z,27.1
2023-11-20T09:24:36.692Z,27.1
2023-11-20T09:25:38.583Z,27.1
2023-11-20T09:26:41.038Z,27.1
2023-11-20T09:27:42.760Z,27.1
2023-11-20T09:28:44.739Z,27.1
2023-11-20T09:29:47.134Z,27.1
2023-11-20T09:30:49.040Z,27.1
2023-11-20T09:31:51.133Z,27.1
2023-11-20T09:32:53.064Z,27.1
2023-11-20T09:33:54.989Z,27.1
2023-11-20T09:34:56.842Z,27.2
2023-11-20T09:35:58.615Z,27.2
2023-11-20T09:37:00.396Z,27.2
2023-11-20T09:38:02.368Z,27.2
2023-11-20T09:39:04.108Z,27.2
2023-11-20T09:40:06.065Z,27.2
2023-11-20T09:41:08.182Z,27.3
2023-11-20T09:42:10.418Z,27.3
2023-11-20T09:43:12.271Z,27.3
2023-11-20T09:44:14.345Z,27.3
2023-11-20T09:45:16.139Z,27.3
2023-11-20T09:46:17.982Z,27.2
2023-11-20T09:47:20.218Z,27.2
2023-11-20T09:48:22.424Z,27.2
2023-11-20T09:49:24.665Z,27.2
2023-11-20T09:50:26.796Z,27.2
2023-11-20T09:51:28.574Z,27.2
2023-11-20T09:52:30.307Z,27.2
2023-11-20T09:53:32.090Z,27.2
2023-11-20T09:54:35.963Z,27.2
2023-11-20T09:55:37.894Z,27.3
2023-11-20T09:56:39.682Z,27.3
2023-11-20T09:57:41.428Z,27.3
2023-11-20T09:58:43.165Z,27.3
2023-11-20T09:59:45.014Z,27.3
2023-11-20T10:00:46.756Z,27.3
2023-11-20T10:01:48.714Z,27.3
2023-11-20T10:02:51.091Z,27.3
2023-11-20T10:03:53.260Z,27.3
2023-11-20T10:04:55.564Z,27.3
2023-11-20T10:05:57.273Z,27.3
2023-11-20T10:06:59.275Z,27.3
2023-11-20T10:08:01.148Z,27.2
2023-11-20T10:09:02.929Z,27.1
2023-11-20T10:10:05.016Z,27
2023-11-20T10:11:06.937Z,27
2023-11-20T10:12:08.751Z,26.9
2023-11-20T10:13:10.629Z,26.8
2023-11-20T10:14:12.577Z,26.8
2023-11-20T10:15:14.313Z,26.8
2023-11-20T10:16:16.294Z,26.8
2023-11-20T10:17:18.528Z,26.8
2023-11-20T10:18:21.204Z,26.8
2023-11-20T10:19:23.019Z,26.8
2023-11-20T10:20:25.152Z,26.8
2023-11-20T10:21:26.909Z,26.8
2023-11-20T10:22:28.679Z,26.8
2023-11-20T10:23:31.881Z,26.8
2023-11-20T10:24:37.128Z,26.8
2023-11-20T10:25:38.906Z,26.8
2023-11-20T10:26:40.698Z,26.8
2023-11-20T10:27:42.457Z,26.8
2023-11-20T10:28:44.258Z,26.7
2023-11-20T10:29:46.030Z,26.7
2023-11-20T10:30:47.843Z,26.7
2023-11-20T10:31:50.255Z,26.7
2023-11-20T10:32:53.668Z,26.7
2023-11-20T10:33:55.959Z,26.6
2023-11-20T10:34:57.870Z,26.6
2023-11-20T10:36:01.791Z,26.6
2023-11-20T10:37:05.373Z,26.6
2023-11-20T10:38:07.840Z,26.6
2023-11-20T10:39:09.881Z,26.6
2023-11-20T10:40:12.016Z,26.6
2023-11-20T10:41:14.003Z,26.6
2023-11-20T10:42:15.735Z,26.6
2023-11-20T10:43:17.516Z,26.6
2023-11-20T10:44:19.885Z,26.6
2023-11-20T10:45:21.663Z,26.6
2023-11-20T10:46:23.449Z,26.6
2023-11-20T10:47:25.434Z,26.6
2023-11-20T10:48:27.337Z,26.7
2023-11-20T10:49:29.768Z,26.8
2023-11-20T10:50:31.719Z,26.8
2023-11-20T10:51:33.487Z,26.8
2023-11-20T10:52:35.242Z,26.8
2023-11-20T10:53:37.040Z,26.9
2023-11-20T10:54:38.876Z,26.9
2023-11-20T10:55:40.731Z,26.9
2023-11-20T10:56:42.538Z,26.9
2023-11-20T10:57:44.492Z,27
2023-11-20T10:58:46.369Z,27.1
2023-11-20T10:59:48.089Z,27.1
2023-11-20T11:00:50.032Z,27.1
2023-11-20T11:01:52.505Z,27.2
2023-11-20T11:03:01.399Z,27.2
2023-11-20T11:04:20.973Z,27.3
2023-11-20T11:05:25.913Z,27.3
2023-11-20T11:06:27.697Z,27.3
2023-11-20T11:07:29.625Z,27.3
2023-11-20T11:08:31.681Z,27.3
2023-11-20T11:09:33.471Z,27.4
2023-11-20T11:10:35.339Z,27.3
2023-11-20T11:11:37.395Z,27.3
2023-11-20T11:12:41.518Z,27.3
2023-11-20T11:13:43.405Z,27.3
2023-11-20T11:14:45.146Z,27.3
2023-11-20T11:15:46.999Z,27.3
2023-11-20T11:16:49.068Z,27.2
2023-11-20T11:17:50.878Z,27.2
2023-11-20T11:18:53.266Z,27.2
2023-11-20T11:19:55.777Z,27.2
2023-11-20T11:20:57.581Z,27.2
2023-11-20T11:21:59.346Z,27.2
2023-11-20T11:23:01.154Z,27.2
2023-11-20T11:24:02.952Z,27.1
2023-11-20T11:25:04.732Z,27.1
2023-11-20T11:26:07.055Z,27.1
2023-11-20T11:27:08.794Z,27.2
2023-11-20T11:28:10.636Z,27.2
2023-11-20T11:29:12.716Z,27.2
2023-11-20T11:30:14.475Z,27.1
2023-11-20T11:31:18.704Z,27.1
2023-11-20T11:32:21.353Z,27.1
2023-11-20T11:33:23.133Z,27.1
2023-11-20T11:34:24.971Z,27.2
2023-11-20T11:35:27.231Z,27.2
2023-11-20T11:36:29.179Z,27.2
2023-11-20T11:37:31.020Z,27.1
2023-11-20T11:38:33.262Z,27.1
2023-11-20T11:39:35.071Z,27.1
2023-11-20T11:40:36.793Z,27.1
2023-11-20T11:41:38.572Z,27.1
2023-11-20T11:42:40.386Z,27.1
2023-11-20T11:43:42.111Z,27.1
2023-11-20T11:44:45.088Z,27.1
2023-11-20T11:45:50.747Z,27.1
2023-11-20T11:46:52.644Z,27.1
2023-11-20T11:47:59.648Z,27.1
2023-11-20T11:49:01.684Z,27.1
2023-11-20T11:50:04.870Z,27.1
2023-11-20T11:51:10.795Z,27.1
2023-11-20T11:52:12.731Z,27.1
2023-11-20T11:53:14.741Z,27.1
2023-11-20T11:54:16.534Z,27.1
2023-11-20T11:55:18.401Z,27.2
2023-11-20T11:56:20.817Z,27.2
2023-11-20T11:57:22.553Z,27.2
2023-11-20T11:58:24.325Z,27.1
2023-11-20T11:59:26.259Z,27.1
2023-11-20T12:00:28.056Z,27.1
2023-11-20T12:01:30.039Z,27.1
2023-11-20T12:02:31.838Z,27.1
2023-11-20T12:03:33.775Z,27.1
2023-11-20T12:04:36.143Z,27.1
2023-11-20T12:05:38.691Z,27.1
2023-11-20T12:06:40.769Z,27.1
2023-11-20T12:07:42.599Z,27.1
2023-11-20T12:08:44.383Z,27.1
2023-11-20T12:09:46.090Z,27.1
2023-11-20T12:10:47.877Z,27.1
2023-11-20T12:11:49.655Z,27.1
2023-11-20T12:12:51.661Z,27
2023-11-20T12:13:54.122Z,27.1
2023-11-20T12:14:55.856Z,27.1
2023-11-20T12:15:57.857Z,27.1
2023-11-20T12:17:00.450Z,27.1
2023-11-20T12:18:03.334Z,27.1
2023-11-20T12:19:06.026Z,27.1
2023-11-20T12:20:07.949Z,27.1
2023-11-20T12:21:09.785Z,27.1
2023-11-20T12:22:11.720Z,27.1
2023-11-20T12:23:13.991Z,27.1
2023-11-20T12:24:15.880Z,27.1
2023-11-20T12:25:17.717Z,27.1
2023-11-20T12:26:19.834Z,27.1
2023-11-20T12:27:21.656Z,27.1
2023-11-20T12:28:23.583Z,27.1
2023-11-20T12:29:25.925Z,27.1
2023-11-20T12:30:27.713Z,27.1
2023-11-20T12:31:29.567Z,27.1
2023-11-20T12:32:31.943Z,27.1
2023-11-20T12:33:34.260Z,27.1
2023-11-20T12:34:36.036Z,27
2023-11-20T12:35:37.813Z,27
2023-11-20T12:36:39.681Z,27
2023-11-20T12:37:41.519Z,27.1
2023-11-20T12:38:43.367Z,27.1
2023-11-20T12:39:45.151Z,27.1
2023-11-20T12:40:46.891Z,27
2023-11-20T12:41:48.696Z,27
2023-11-20T12:42:50.521Z,27.1
2023-11-20T12:43:52.515Z,27.1
2023-11-20T12:44:54.353Z,27.1
2023-11-20T12:45:56.223Z,27.1
2023-11-20T12:46:58.674Z,27.1
2023-11-20T12:48:00.969Z,27.1
2023-11-20T12:49:03.033Z,27.2
2023-11-20T12:50:05.032Z,27.1
2023-11-20T12:51:06.814Z,27.1
2023-11-20T12:52:10.600Z,27.1
2023-11-20T12:53:12.712Z,27.2
2023-11-20T12:54:14.716Z,27.3
2023-11-20T12:55:16.661Z,27.2
2023-11-20T12:56:18.839Z,27.2
2023-11-20T12:57:20.705Z,27.2
2023-11-20T12:58:22.550Z,27.2
2023-11-20T12:59:24.722Z,27.2
2023-11-20T13:00:26.489Z,27.2
2023-11-20T13:01:28.330Z,27.2
2023-11-20T13:02:30.475Z,27.2
2023-11-20T13:03:32.804Z,27.2
2023-11-20T13:04:35.435Z,27.3
2023-11-20T13:05:37.870Z,27.3
2023-11-20T13:06:39.884Z,27.3
2023-11-20T13:07:43.431Z,27.3
2023-11-20T13:08:45.638Z,27.3
2023-11-20T13:09:47.529Z,27.2
2023-11-20T13:10:49.347Z,27.2
2023-11-20T13:11:51.225Z,27.2
2023-11-20T13:12:53.031Z,27.2
2023-11-20T13:13:54.888Z,27.1
2023-11-20T13:14:56.658Z,27.1
2023-11-20T13:15:59.493Z,27.1
2023-11-20T13:17:03.704Z,27.1
2023-11-20T13:18:06.001Z,27.2
2023-11-20T13:19:08.159Z,27.2
2023-11-20T13:20:10.220Z,27.1
2023-11-20T13:21:12.008Z,27.1
2023-11-20T13:22:13.800Z,27.1
2023-11-20T13:23:15.926Z,27.1
2023-11-20T13:24:17.707Z,27.1
2023-11-20T13:25:19.503Z,27.1
2023-11-20T13:26:21.303Z,27.1
2023-11-20T13:27:23.148Z,27.1
2023-11-20T13:28:25.003Z,27.1
2023-11-20T13:29:27.253Z,27.1
2023-11-20T13:30:28.980Z,27
2023-11-20T13:31:30.814Z,27
2023-11-20T13:32:32.991Z,27
2023-11-20T13:33:34.845Z,27
2023-11-20T13:34:36.626Z,27.1
2023-11-20T13:35:38.674Z,27.1
2023-11-20T13:36:40.449Z,27.1
2023-11-20T13:37:42.182Z,27.1
2023-11-20T13:38:44.365Z,27.1
2023-11-20T13:39:46.191Z,27.1
2023-11-20T13:40:48.117Z,27.1
2023-11-20T13:41:50.118Z,27.1
2023-11-20T13:42:51.961Z,27.1
2023-11-20T13:43:53.877Z,27.1
2023-11-20T13:44:55.724Z,27.1
2023-11-20T13:45:57.602Z,27.1
2023-11-20T13:46:59.980Z,27.1
2023-11-20T13:48:02.713Z,27.1
2023-11-20T13:49:04.609Z,27.1
2023-11-20T13:50:06.798Z,27.1